createdAt,value
2023-03-16T00:04:21.622Z,0.32
2023-03-16T00:09:31.446Z,0.45
2023-03-16T00:14:36.115Z,0.43
2023-03-16T00:19:40.393Z,0.38
2023-03-16T00:24:45.996Z,0.42
2023-03-16T00:29:56.021Z,0.67
2023-03-16T00:35:02.058Z,0.48
2023-03-16T00:40:11.604Z,0.48
2023-03-16T00:45:16.055Z,0.24
2023-03-16T00:50:22.493Z,0.21
2023-03-16T00:55:28.656Z,0.11
2023-03-16T01:00:34.111Z,0.21
2023-03-16T01:05:43.587Z,0.05
2023-03-16T01:10:49.262Z,0.07
2023-03-16T01:15:53.891Z,0.32
2023-03-16T01:20:58.070Z,0.15
2023-03-16T01:26:03.978Z,-0.09
2023-03-16T01:31:10.675Z,-0.04
2023-03-16T01:36:16.991Z,-0.16
2023-03-16T01:41:35.891Z,0.12
2023-03-16T01:46:41.947Z,-0.10
2023-03-16T01:51:51.707Z,-0.11
2023-03-16T01:57:05.993Z,-0.18
2023-03-16T02:02:12.636Z,-0.26
2023-03-16T02:07:19.693Z,-0.27
2023-03-16T02:12:26.051Z,-0.30
2023-03-16T02:17:35.616Z,-0.31
2023-03-16T02:22:47.508Z,-0.40
2023-03-16T02:28:02.489Z,-0.26
2023-03-16T02:33:11.174Z,-0.45
2023-03-16T02:38:15.627Z,-0.49
2023-03-16T02:43:30.010Z,-0.56
2023-03-16T02:48:54.668Z,-0.60
2023-03-16T02:53:58.880Z,-0.64
2023-03-16T02:59:05.641Z,-0.63
2023-03-16T03:04:11.599Z,-0.78
2023-03-16T03:09:16.926Z,-0.72
2023-03-16T03:14:21.476Z,-0.71
2023-03-16T03:19:30.063Z,-0.78
2023-03-16T03:24:35.074Z,-0.78
2023-03-16T03:29:39.614Z,-0.74
2023-03-16T03:34:45.284Z,-0.77
2023-03-16T03:39:49.671Z,-0.67
2023-03-16T03:44:54.900Z,-0.80
2023-03-16T03:50:00.601Z,-0.78
2023-03-16T03:55:05.987Z,-0.56
2023-03-16T04:00:13.437Z,-0.75
2023-03-16T04:05:19.266Z,-0.78
2023-03-16T04:10:27.219Z,-0.81
2023-03-16T04:15:33.069Z,-0.89
2023-03-16T04:20:56.449Z,-0.89
2023-03-16T04:26:03.947Z,-0.90
2023-03-16T04:31:10.762Z,-0.96
2023-03-16T04:36:24.187Z,-0.94
2023-03-16T04:41:29.169Z,-0.95
2023-03-16T04:46:44.809Z,-0.84
2023-03-16T04:51:51.465Z,-0.91
2023-03-16T04:56:57.930Z,-0.92
2023-03-16T05:02:10.923Z,-0.87
2023-03-16T05:07:17.273Z,-0.87
2023-03-16T05:12:26.492Z,-0.86
2023-03-16T05:17:36.828Z,-1.04
2023-03-16T05:22:45.285Z,-0.45
2023-03-16T05:27:55.291Z,-0.23
2023-03-16T05:33:08.866Z,-0.98
2023-03-16T05:38:15.994Z,-0.52
2023-03-16T05:43:22.383Z,-0.63
2023-03-16T05:48:29.229Z,-0.76
2023-03-16T05:53:37.398Z,-0.25
2023-03-16T05:58:49.037Z,-0.02
2023-03-16T06:03:53.803Z,-0.16
2023-03-16T06:09:03.887Z,-0.13
2023-03-16T06:14:09.298Z,-0.56
2023-03-16T06:19:14.334Z,-0.26
2023-03-16T06:24:21.404Z,-0.05
2023-03-16T06:29:25.869Z,0.24
2023-03-16T06:34:32.709Z,0.19
2023-03-16T06:39:42.830Z,0.22
2023-03-16T06:44:50.504Z,0.68
2023-03-16T06:50:01.868Z,0.96
2023-03-16T06:55:15.001Z,1.28
2023-03-16T07:00:26.434Z,2.34
2023-03-16T07:05:33.327Z,2.53
2023-03-16T07:10:42.908Z,1.93
2023-03-16T07:15:52.289Z,2.04
2023-03-16T07:21:00.604Z,2.05
2023-03-16T07:26:08.389Z,2.31
2023-03-16T07:31:16.765Z,2.83
2023-03-16T07:36:22.153Z,3.21
2023-03-16T07:41:33.899Z,3.98
2023-03-16T07:47:08.150Z,3.77
2023-03-16T07:52:14.136Z,3.01
2023-03-16T07:57:21.424Z,1.83
2023-03-16T08:02:25.766Z,1.94
2023-03-16T08:07:32.094Z,2.36
2023-03-16T08:12:47.758Z,2.87
2023-03-16T08:17:59.313Z,2.46
2023-03-16T08:23:04.282Z,2.76
2023-03-16T08:28:17.159Z,3.69
2023-03-16T08:33:23.425Z,4.22
2023-03-16T08:38:29.401Z,4.68
2023-03-16T08:43:40.598Z,4.92
2023-03-16T08:48:44.768Z,4.61
2023-03-16T08:53:52.960Z,4.22
2023-03-16T08:59:02.329Z,4.30
2023-03-16T09:04:06.865Z,4.11
2023-03-16T09:09:11.531Z,4.53
2023-03-16T09:14:18.993Z,5.29
2023-03-16T09:19:23.836Z,5.57
2023-03-16T09:24:28.171Z,5.35
2023-03-16T09:29:34.427Z,5.13
2023-03-16T09:34:39.523Z,6.21
2023-03-16T09:39:43.987Z,6.99
2023-03-16T09:45:00.557Z,5.17
2023-03-16T09:50:08.796Z,4.40
2023-03-16T09:55:24.808Z,5.54
2023-03-16T10:00:35.530Z,5.69
2023-03-16T10:05:40.961Z,5.36
2023-03-16T10:10:59.953Z,6.01
2023-03-16T10:16:19.733Z,6.40
2023-03-16T10:21:25.718Z,5.75
2023-03-16T10:26:38.041Z,5.91
2023-03-16T10:31:44.139Z,6.75
2023-03-16T10:36:49.196Z,6.42
2023-03-16T10:41:58.454Z,5.09
2023-03-16T10:47:06.972Z,5.22
2023-03-16T10:52:17.911Z,5.47
2023-03-16T10:57:25.642Z,5.44
2023-03-16T11:02:35.799Z,5.15
2023-03-16T11:07:40.557Z,5.95
2023-03-16T11:12:49.871Z,5.57
2023-03-16T11:17:56.426Z,5.27
2023-03-16T11:23:03.144Z,4.77
2023-03-16T11:28:17.085Z,5.42
2023-03-16T11:33:27.505Z,6.58
2023-03-16T11:38:37.828Z,6.35
2023-03-16T11:43:54.292Z,6.32
2023-03-16T11:49:24.713Z,5.84
2023-03-16T11:54:48.141Z,6.73
2023-03-16T12:00:20.745Z,8.42
2023-03-16T12:05:43.860Z,8.40
2023-03-16T12:10:57.071Z,7.08
2023-03-16T12:16:06.784Z,6.08
2023-03-16T12:21:17.334Z,6.12
2023-03-16T12:26:24.328Z,5.48
2023-03-16T12:31:38.776Z,5.55
2023-03-16T12:37:03.908Z,6.96
2023-03-16T12:42:23.570Z,7.70
2023-03-16T12:47:34.938Z,9.70
2023-03-16T12:52:46.274Z,10.16
2023-03-16T12:57:53.803Z,8.12
2023-03-16T13:02:59.908Z,7.94
2023-03-16T13:08:13.775Z,7.84
2023-03-16T13:13:19.026Z,6.13
2023-03-16T13:24:29.803Z,8.91
2023-03-16T13:29:37.730Z,9.44
2023-03-16T13:34:49.632Z,7.58
2023-03-16T13:40:04.987Z,6.33
2023-03-16T13:46:11.610Z,5.62
2023-03-16T13:57:07.568Z,5.58
2023-03-16T14:02:20.178Z,8.98
2023-03-16T14:07:26.537Z,10.17
2023-03-16T14:12:32.135Z,12.53
2023-03-16T14:17:36.567Z,10.39
2023-03-16T14:22:41.110Z,11.70
2023-03-16T14:27:49.323Z,10.73
2023-03-16T14:33:01.381Z,9.15
2023-03-16T14:38:23.504Z,8.74
2023-03-16T14:43:38.706Z,7.57
2023-03-16T14:48:43.721Z,8.06
2023-03-16T14:53:50.314Z,9.07
2023-03-16T14:59:02.445Z,9.35
2023-03-16T15:04:13.887Z,9.46
2023-03-16T15:09:40.121Z,9.82
2023-03-16T15:15:04.388Z,8.95
2023-03-16T15:20:12.063Z,7.67
2023-03-16T15:25:27.081Z,7.71
2023-03-16T15:30:33.663Z,8.04
2023-03-16T15:35:40.323Z,8.41
2023-03-16T15:40:47.998Z,8.65
2023-03-16T15:46:00.008Z,7.58
2023-03-16T15:51:21.962Z,7.61
2023-03-16T15:56:30.309Z,6.83
2023-03-16T16:01:47.729Z,7.41
2023-03-16T16:06:55.514Z,7.06
2023-03-16T16:12:00.054Z,6.48
2023-03-16T16:17:09.743Z,5.71
2023-03-16T16:22:14.895Z,4.99
2023-03-16T16:27:26.988Z,4.88
2023-03-16T16:32:41.158Z,4.77
2023-03-16T16:37:51.858Z,4.99
2023-03-16T16:50:03.651Z,4.56
2023-03-16T16:56:04.150Z,4.34
2023-03-16T17:01:42.075Z,4.37
2023-03-16T17:06:56.824Z,4.16
2023-03-16T17:12:08.761Z,4.08
2023-03-16T17:17:22.482Z,3.84
2023-03-16T17:22:30.398Z,3.96
2023-03-16T17:27:35.114Z,3.77
2023-03-16T17:32:39.472Z,3.90
2023-03-16T17:37:47.439Z,4.61
2023-03-16T17:42:53.079Z,4.31
2023-03-16T17:48:15.299Z,3.91
2023-03-16T17:53:23.251Z,3.38
2023-03-16T17:58:31.481Z,4.10
2023-03-16T18:03:35.991Z,3.38
2023-03-16T18:08:41.714Z,2.94
2023-03-16T18:13:46.824Z,2.19
2023-03-16T18:18:52.856Z,1.58
2023-03-16T18:23:58.376Z,1.57
2023-03-16T18:29:02.651Z,1.71
2023-03-16T18:34:07.933Z,1.94
2023-03-16T18:39:22.269Z,1.12
2023-03-16T18:44:27.625Z,0.79
2023-03-16T18:49:38.331Z,0.22
2023-03-16T18:54:45.885Z,0.41
2023-03-16T18:59:51.265Z,0.40
2023-03-16T19:04:57.517Z,0.35
2023-03-16T19:10:08.630Z,0.15
2023-03-16T19:15:19.891Z,0.28
2023-03-16T19:20:25.984Z,0.01
2023-03-16T19:25:36.190Z,0.31
2023-03-16T19:30:41.921Z,0.30
2023-03-16T19:35:51.799Z,0.16
2023-03-16T19:41:01.910Z,0.59
2023-03-16T19:46:06.584Z,0.54
2023-03-16T19:51:14.653Z,0.66
2023-03-16T19:56:22.061Z,0.77
2023-03-16T20:01:32.436Z,0.64
2023-03-16T20:06:37.048Z,0.62
2023-03-16T20:11:43.218Z,1.01
2023-03-16T20:16:48.310Z,1.81
2023-03-16T20:21:52.725Z,2.27
2023-03-16T20:26:58.411Z,1.83
2023-03-16T20:32:03.742Z,1.66
2023-03-16T20:37:21.964Z,2.37
2023-03-16T20:42:32.237Z,2.05
2023-03-16T20:47:36.432Z,2.53
2023-03-16T20:52:40.633Z,1.28
2023-03-16T20:57:48.875Z,0.52
2023-03-16T21:02:53.520Z,0.93
2023-03-16T21:07:58.718Z,0.67
2023-03-16T21:13:04.285Z,0.50
2023-03-16T21:18:15.354Z,-0.31
2023-03-16T21:23:21.904Z,0.63
2023-03-16T21:28:29.748Z,0.77
2023-03-16T21:33:38.760Z,0.79
2023-03-16T21:38:43.508Z,-0.17
2023-03-16T21:43:50.108Z,-0.72
2023-03-16T21:48:56.350Z,-0.80
2023-03-16T21:54:01.756Z,-0.58
2023-03-16T21:59:07.781Z,-0.16
2023-03-16T22:04:17.477Z,-0.79
2023-03-16T22:09:25.042Z,0.09
2023-03-16T22:14:30.677Z,0.33
2023-03-16T22:19:35.669Z,-0.90
2023-03-16T22:24:40.231Z,-0.81
2023-03-16T22:29:46.236Z,-0.76
2023-03-16T22:34:56.316Z,-0.78
2023-03-16T22:40:03.090Z,-0.63
2023-03-16T22:45:19.093Z,-1.01
2023-03-16T22:50:26.720Z,-1.56
2023-03-16T22:55:34.004Z,-2.07
2023-03-16T23:00:41.561Z,-1.99
2023-03-16T23:05:47.625Z,-1.66
2023-03-16T23:10:56.001Z,-2.05
2023-03-16T23:16:01.735Z,-2.16
2023-03-16T23:21:05.747Z,-2.43
2023-03-16T23:26:17.674Z,-1.63
2023-03-16T23:31:26.019Z,-1.52
2023-03-16T23:36:30.574Z,-1.26
2023-03-16T23:41:35.647Z,-1.10
2023-03-16T23:46:42.638Z,-0.87
2023-03-16T23:51:47.938Z,-1.80
2023-03-16T23:56:52.503Z,-0.57
